Terminal Aerodrome Forecast
Issued by NWS

Home | Current Version | Previous Version | Text Only | Print | Product List | Glossary On
Versions: 1 2 3 4 5 6 7 8 9 10 11 12
715
FTUS45 KMSO 181720
TAFSMN
TAF
KSMN 181720Z 1818/1918 VRB04KT P6SM SCT150
     FM182100 27009KT P6SM BKN150
     FM190100 22003KT P6SM SKC
      AMD LTD TO CLD VIS AND WIND=

USA.gov is the U.S. government's official web portal to all federal, state and local government web resources and services.